Time;durP1;ratioP1;P1;durP2;ratioP2;P2;SDS_P1;SDS_P2;PMS_P1;PMS_P2;Temp;Humidity;BMP_temperature;BMP_pressure;BME280_temperature;BME280_humidity;BME280_pressure;Samples;Min_cycle;Max_cycle;Signal;HPM_P1;HPM_P2
2023/03/01 00:01:17;;;;;;;30.20;14.90;;;;;;;-2.31;79.60;99982.27;79280;1297;3013293;-67
2023/03/01 00:03:44;;;;;;;30.00;13.90;;;;;;;-2.29;79.53;99975.41;79343;1300;3013864;-65
2023/03/01 00:06:11;;;;;;;32.10;14.90;;;;;;;-2.40;79.77;99968.04;78067;1300;3053110;-66
2023/03/01 00:08:38;;;;;;;25.80;12.90;;;;;;;-2.43;80.16;99962.55;79174;1300;3013266;-68
2023/03/01 00:11:17;;;;;;;27.90;14.20;;;;;;;-2.42;80.16;99961.17;79148;1297;3011850;-66
2023/03/01 00:13:45;;;;;;;20.70;8.20;;;;;;;-2.34;80.43;99960.30;78116;1296;3057480;-67
2023/03/01 00:16:29;;;;;;;22.10;11.00;;;;;;;-1.70;79.09;99954.71;79316;1297;3011352;-66
2023/03/01 00:18:57;;;;;;;20.00;10.70;;;;;;;-1.05;76.48;99955.50;78131;1299;3055079;-66
2023/03/01 00:21:24;;;;;;;25.90;13.60;;;;;;;-1.13;75.90;99944.35;79427;1300;3019238;-65
2023/03/01 00:23:52;;;;;;;25.90;13.20;;;;;;;-1.10;75.85;99940.06;79371;1300;3013255;-66
2023/03/01 00:26:21;;;;;;;23.50;12.10;;;;;;;-1.37;76.03;99939.84;78185;1296;3068899;-64
2023/03/01 00:28:48;;;;;;;19.70;11.80;;;;;;;-1.55;76.57;99932.52;79478;1297;3012837;-65
2023/03/01 00:31:20;;;;;;;23.60;11.00;;;;;;;-1.64;76.91;99937.70;79457;1296;3011726;-65
2023/03/01 00:33:50;;;;;;;22.20;11.50;;;;;;;-1.80;76.99;99941.36;78109;1300;3053737;-66
2023/03/01 00:36:17;;;;;;;17.90;9.70;;;;;;;-1.95;77.60;99944.30;79301;1302;3013177;-65
2023/03/01 00:38:49;;;;;;;21.70;10.60;;;;;;;-1.95;77.87;99940.53;78034;1300;3052540;-68
2023/03/01 00:41:17;;;;;;;24.40;11.10;;;;;;;-1.88;77.15;99942.05;79457;1299;3013136;-67
2023/03/01 00:43:44;;;;;;;18.70;11.10;;;;;;;-2.05;77.47;99952.05;79405;1296;3011812;-66
2023/03/01 00:46:13;;;;;;;20.60;11.10;;;;;;;-2.16;78.24;99947.27;78099;1297;3057828;-66
2023/03/01 00:48:40;;;;;;;22.30;11.60;;;;;;;-2.26;78.72;99942.48;79505;1298;3013109;-66
2023/03/01 00:51:11;;;;;;;19.70;11.00;;;;;;;-2.30;78.99;99945.73;79365;1296;3011878;-65
2023/03/01 00:53:39;;;;;;;21.30;11.50;;;;;;;-2.31;78.91;99938.00;78057;1300;3054359;-66
2023/03/01 00:56:08;;;;;;;23.90;11.30;;;;;;;-2.32;78.99;99934.06;79243;1298;3011665;-64
2023/03/01 00:58:37;;;;;;;17.50;10.40;;;;;;;-2.35;78.98;99930.11;78703;1297;3013161;-71
2023/03/01 01:01:16;;;;;;;24.40;11.50;;;;;;;-2.47;79.43;99930.98;79387;1297;3013275;-68
2023/03/01 01:03:46;;;;;;;22.20;11.10;;;;;;;-2.47;79.80;99927.20;78149;1298;3049925;-68
2023/03/01 01:06:35;;;;;;;19.80;10.50;;;;;;;-2.38;79.69;99921.71;79440;1296;3013299;-65
2023/03/01 01:09:05;;;;;;;21.00;11.30;;;;;;;-2.39;79.15;99921.88;78113;1300;3051222;-65
2023/03/01 01:11:32;;;;;;;18.70;8.30;;;;;;;-2.44;79.54;99919.14;79278;1299;3013032;-68
2023/03/01 01:14:02;;;;;;;19.70;10.20;;;;;;;-1.91;78.76;99920.59;78743;1300;3011904;-67
2023/03/01 01:16:29;;;;;;;16.40;9.60;;;;;;;-1.10;76.11;99910.13;79252;1297;3014748;-64
2023/03/01 01:18:56;;;;;;;25.20;12.60;;;;;;;-0.94;75.35;99909.67;79201;1296;3011955;-65
2023/03/01 01:21:25;;;;;;;18.70;9.90;;;;;;;-1.23;74.87;99908.83;77973;1300;3050995;-64
2023/03/01 01:23:52;;;;;;;17.60;10.70;;;;;;;-1.49;75.69;99902.93;79291;1298;3012855;-66
2023/03/01 01:26:24;;;;;;;16.90;10.30;;;;;;;-1.65;76.27;99904.20;79193;1297;3012995;-68
2023/03/01 01:28:53;;;;;;;20.80;12.00;;;;;;;-1.89;76.86;99898.45;78116;1297;3051288;-65
2023/03/01 01:31:23;;;;;;;23.50;10.50;;;;;;;-2.09;77.49;99904.69;79316;1297;3011738;-65
2023/03/01 01:33:51;;;;;;;24.70;12.50;;;;;;;-2.11;78.08;99905.54;77986;1300;3027816;-67
2023/03/01 01:36:18;;;;;;;21.50;12.30;;;;;;;-2.13;77.79;99907.44;79309;1298;3016067;-66
2023/03/01 01:38:45;;;;;;;20.90;11.30;;;;;;;-2.30;78.18;99911.06;79208;1296;3012914;-66
2023/03/01 01:41:13;;;;;;;20.30;11.80;;;;;;;-2.31;78.20;99912.61;77998;1299;3049573;-68
2023/03/01 01:43:42;;;;;;;16.90;9.20;;;;;;;-2.35;78.19;99918.27;79310;1300;3011918;-67
2023/03/01 01:46:16;;;;;;;17.70;10.40;;;;;;;-2.26;77.91;99916.20;78702;1300;3011461;-64
2023/03/01 01:48:44;;;;;;;16.40;9.70;;;;;;;-2.32;77.82;99916.55;79143;1299;3011535;-65
2023/03/01 01:51:15;;;;;;;15.00;9.30;;;;;;;-2.53;78.66;99917.77;78121;1298;3050262;-64
2023/03/01 01:53:41;;;;;;;21.70;11.00;;;;;;;-2.59;78.86;99910.39;79259;1296;3011792;-66
2023/03/01 01:56:09;;;;;;;16.70;8.80;;;;;;;-2.62;79.00;99910.04;79217;1296;3013906;-64
2023/03/01 01:58:37;;;;;;;16.00;9.30;;;;;;;-2.63;79.01;99902.84;77962;1300;3049623;-67
2023/03/01 02:01:04;;;;;;;17.30;9.10;;;;;;;-2.68;78.83;99895.48;79311;1295;3013433;-65
2023/03/01 02:03:37;;;;;;;16.10;8.40;;;;;;;-2.65;78.82;99894.95;79211;1300;3013657;-66
2023/03/01 02:06:07;;;;;;;9.90;4.90;;;;;;;-2.74;79.03;99892.89;78047;1300;3050978;-66
2023/03/01 02:08:36;;;;;;;18.10;8.00;;;;;;;-2.02;78.08;99888.52;79283;1298;3012120;-65
2023/03/01 02:11:05;;;;;;;11.60;6.90;;;;;;;-1.44;75.63;99890.55;78121;1299;3049962;-65
2023/03/01 02:13:32;;;;;;;18.30;8.60;;;;;;;-1.50;74.48;99886.45;79248;1296;3014547;-64
2023/03/01 02:16:00;;;;;;;14.90;7.70;;;;;;;-1.59;74.66;99883.06;79174;1297;3012182;-63
2023/03/01 02:18:29;;;;;;;15.10;8.40;;;;;;;-1.78;74.82;99890.34;78068;1300;3052681;-68
2023/03/01 02:21:17;;;;;;;14.40;8.40;;;;;;;-2.02;75.28;99880.45;79392;1299;3011659;-65
2023/03/01 02:23:50;;;;;;;15.90;9.40;;;;;;;-2.19;75.69;99875.17;78127;1300;3057855;-67
2023/03/01 02:26:45;;;;;;;16.70;8.80;;;;;;;-2.34;75.77;99873.31;78194;1298;3049644;-66
2023/03/01 02:29:13;;;;;;;12.60;7.40;;;;;;;-2.55;75.89;99876.77;78872;1295;3011796;-68
2023/03/01 02:31:41;;;;;;;30.10;9.70;;;;;;;-2.60;75.96;99884.65;79438;1295;3013719;-66
2023/03/01 02:34:17;;;;;;;16.50;8.40;;;;;;;-2.54;75.69;99873.17;78119;1299;3053188;-68
2023/03/01 02:36:56;;;;;;;20.70;9.50;;;;;;;-2.61;75.82;99876.43;79347;1300;3011628;-67
2023/03/01 02:39:29;;;;;;;12.60;7.30;;;;;;;-2.71;76.02;99873.00;78147;1300;3069281;-67
2023/03/01 02:41:56;;;;;;;13.10;7.30;;;;;;;-2.59;75.82;99869.92;79422;1295;3011698;-67
2023/03/01 02:44:25;;;;;;;13.40;8.50;;;;;;;-2.63;75.82;99869.58;78055;1297;3055727;-68
2023/03/01 02:46:54;;;;;;;14.40;8.30;;;;;;;-2.64;75.81;99861.34;79205;1297;3020852;-67
2023/03/01 02:49:31;;;;;;;12.00;7.10;;;;;;;-2.64;75.66;99857.23;79161;1298;3011611;-68
2023/03/01 02:52:08;;;;;;;13.80;7.30;;;;;;;-2.64;75.34;99856.71;78111;1300;3053058;-66
2023/03/01 02:54:40;;;;;;;13.90;7.80;;;;;;;-2.56;74.77;99853.61;78184;1299;3052611;-65
2023/03/01 02:57:08;;;;;;;14.20;7.40;;;;;;;-2.52;75.12;99848.46;79306;1296;3012902;-66
2023/03/01 02:59:40;;;;;;;15.00;8.20;;;;;;;-2.48;74.98;99849.66;78033;1300;3051041;-67
2023/03/01 03:02:16;;;;;;;12.80;7.10;;;;;;;-2.66;75.72;99847.95;79324;1296;3011647;-66
2023/03/01 03:04:44;;;;;;;;;;;;;;;-2.71;75.83;99843.17;77876;1300;3051071;-68
2023/03/01 03:07:10;;;;;;;37.40;14.30;;;;;;;-2.67;75.83;99840.08;79369;1295;3013154;-66
2023/03/01 03:09:37;;;;;;;34.40;15.00;;;;;;;-2.83;76.28;99833.55;79248;1298;3012193;-67
2023/03/01 03:12:10;;;;;;;24.90;11.60;;;;;;;-2.84;76.52;99834.59;78013;1300;3052676;-66
2023/03/01 03:14:39;;;;;;;30.70;13.80;;;;;;;-3.00;77.82;99834.06;79161;1298;3012962;-65
2023/03/01 03:17:06;;;;;;;24.90;11.20;;;;;;;-2.98;78.37;99832.20;79274;1297;3011884;-65
2023/03/01 03:19:36;;;;;;;37.10;15.10;;;;;;;-2.93;78.10;99833.05;78065;1299;3049501;-65
2023/03/01 03:22:02;;;;;;;14.90;6.90;;;;;;;-3.12;79.21;99834.92;79216;1296;3013580;-65
2023/03/01 03:24:37;;;;;;;22.00;9.80;;;;;;;-2.57;79.47;99836.11;79191;1297;3013794;-67
2023/03/01 03:27:06;;;;;;;21.30;9.30;;;;;;;-1.50;76.52;99826.12;78227;1297;3054796;-65
2023/03/01 03:29:32;;;;;;;23.10;9.80;;;;;;;-1.51;75.57;99823.55;79204;1295;3013152;-64
2023/03/01 03:32:20;;;;;;;19.30;8.70;;;;;;;-1.74;75.49;99818.36;77932;1297;3060241;-66
2023/03/01 03:34:50;;;;;;;14.20;7.40;;;;;;;-1.68;75.20;99813.35;79154;1295;3013429;-65
2023/03/01 03:40:15;;;;;;;21.10;10.30;;;;;;;-2.65;77.89;99808.34;77972;1299;3050936;-67
2023/03/01 03:42:42;;;;;;;20.60;10.50;;;;;;;-2.71;78.73;99797.20;77997;1299;3053937;-65
2023/03/01 03:45:09;;;;;;;17.30;10.20;;;;;;;-2.94;79.34;99779.73;79396;1300;3013649;-66
2023/03/01 03:47:37;;;;;;;71.30;20.80;;;;;;;-2.88;79.41;99777.67;79160;1299;3011677;-65
2023/03/01 03:50:06;;;;;;;62.00;21.60;;;;;;;-3.09;80.33;99780.94;77986;1300;3057640;-66
2023/03/01 03:52:32;;;;;;;27.70;12.80;;;;;;;-3.23;81.28;99781.29;79237;1297;3013075;-67
2023/03/01 03:54:59;;;;;;;19.90;8.50;;;;;;;-3.24;81.45;99787.45;79298;1296;3011661;-64
2023/03/01 03:57:27;;;;;;;13.30;7.50;;;;;;;-3.39;82.07;99791.04;78016;1299;3052959;-67
2023/03/01 03:59:53;;;;;;;11.30;5.90;;;;;;;-3.44;82.45;99781.42;79294;1300;3018532;-66
2023/03/01 04:02:21;;;;;;;12.40;6.70;;;;;;;-3.27;82.03;99777.00;79294;1299;3013088;-67
2023/03/01 04:04:50;;;;;;;14.40;7.00;;;;;;;-2.49;81.04;99781.17;78164;1300;3057239;-68
2023/03/01 04:07:17;;;;;;;17.30;8.90;;;;;;;-1.97;78.18;99770.73;79406;1297;3018737;-68
2023/03/01 04:09:46;;;;;;;23.50;9.90;;;;;;;-1.74;78.08;99749.65;79220;1299;3011687;-65
2023/03/01 04:12:14;;;;;;;19.80;10.00;;;;;;;-2.21;77.48;99744.90;78122;1300;3053669;-67
2023/03/01 04:14:40;;;;;;;12.60;7.60;;;;;;;-2.70;78.97;99740.95;79245;1299;3011821;-67
2023/03/01 04:17:07;;;;;;;18.40;9.40;;;;;;;-2.90;79.93;99738.07;79444;1295;3013043;-66
2023/03/01 04:19:35;;;;;;;14.90;6.80;;;;;;;-3.17;81.20;99738.11;78011;1300;3026226;-67
2023/03/01 04:22:09;;;;;;;17.60;10.40;;;;;;;-2.88;79.74;99736.02;79247;1296;3013740;-66
2023/03/01 04:24:37;;;;;;;19.00;8.80;;;;;;;-2.89;79.00;99735.68;77999;1300;3052210;-66
2023/03/01 04:27:04;;;;;;;14.10;6.80;;;;;;;-3.00;79.24;99738.95;79305;1300;3014062;-66
2023/03/01 04:29:31;;;;;;;16.80;7.20;;;;;;;-2.99;79.10;99741.86;79183;1299;3013402;-66
2023/03/01 04:32:00;;;;;;;15.30;6.90;;;;;;;-3.03;80.00;99731.75;77992;1300;3051175;-65
2023/03/01 04:34:26;;;;;;;17.70;8.00;;;;;;;-2.34;78.77;99739.81;79260;1298;3013134;-65
2023/03/01 04:36:53;;;;;;;16.20;8.70;;;;;;;-2.18;77.86;99736.32;79285;1300;3012885;-67
2023/03/01 04:39:21;;;;;;;13.90;7.50;;;;;;;-2.05;76.74;99741.41;78079;1300;3026157;-64
2023/03/01 04:41:48;;;;;;;14.60;8.00;;;;;;;-2.21;76.61;99735.80;79353;1300;3019112;-65
2023/03/01 04:44:14;;;;;;;18.40;8.20;;;;;;;-2.55;77.40;99731.99;79266;1295;3011843;-69
2023/03/01 04:46:42;;;;;;;12.90;7.80;;;;;;;-2.67;77.56;99747.29;77997;1296;3028257;-65
2023/03/01 04:49:09;;;;;;;14.90;7.80;;;;;;;-2.75;77.75;99732.73;79234;1299;3013023;-66
2023/03/01 04:51:36;;;;;;;14.80;8.40;;;;;;;-2.83;77.98;99733.77;79279;1299;3011605;-63
2023/03/01 04:54:08;;;;;;;12.10;5.80;;;;;;;-3.06;78.71;99733.46;78037;1299;3051371;-64
2023/03/01 04:56:35;;;;;;;16.10;8.30;;;;;;;-2.95;78.50;99740.99;79283;1299;3013110;-64
2023/03/01 04:59:05;;;;;;;15.70;7.30;;;;;;;-3.12;78.91;99739.99;79250;1298;3011803;-64
2023/03/01 05:01:35;;;;;;;15.40;8.10;;;;;;;-3.28;79.44;99732.80;78121;1296;3052291;-67
2023/03/01 05:04:02;;;;;;;17.90;8.80;;;;;;;-3.34;79.82;99745.98;79268;1296;3013017;-64
2023/03/01 05:06:32;;;;;;;13.40;7.10;;;;;;;-3.25;79.65;99748.05;78048;1300;3050792;-64
2023/03/01 05:08:59;;;;;;;5.30;3.60;;;;;;;-3.08;79.12;99742.55;79220;1299;3013711;-65
2023/03/01 05:11:33;;;;;;;10.90;4.60;;;;;;;-2.35;77.91;99754.04;79437;1298;3011863;-64
2023/03/01 05:14:05;;;;;;;13.20;6.00;;;;;;;-1.87;75.88;99748.37;78094;1297;3053071;-67
2023/03/01 05:16:32;;;;;;;8.70;4.90;;;;;;;-1.88;74.92;99759.70;79336;1297;3013115;-65
2023/03/01 05:19:11;;;;;;;9.80;6.30;;;;;;;-2.10;75.34;99761.86;78236;1296;3050448;-67
2023/03/01 05:24:26;;;;;;;9.20;5.50;;;;;;;-2.37;75.96;99771.23;78035;1299;3051481;-66
2023/03/01 05:26:53;;;;;;;14.60;7.20;;;;;;;-2.48;76.07;99772.29;79561;1297;3012607;-67
2023/03/01 05:29:24;;;;;;;14.20;6.30;;;;;;;-2.46;76.41;99765.41;79287;1300;3012031;-65
2023/03/01 05:32:00;;;;;;;14.60;7.40;;;;;;;-2.28;75.38;99770.34;78253;1300;3052344;-66
2023/03/01 05:34:30;;;;;;;14.70;6.80;;;;;;;-2.41;75.59;99763.69;78181;1300;3068099;-66
2023/03/01 05:36:57;;;;;;;12.40;6.50;;;;;;;-2.55;76.49;99759.78;79513;1295;3011933;-65
2023/03/01 05:39:25;;;;;;;15.40;8.60;;;;;;;-2.39;75.80;99753.40;79300;1296;3011921;-64
2023/03/01 05:41:58;;;;;;;11.70;7.20;;;;;;;-2.45;76.08;99757.02;78120;1296;3053433;-65
2023/03/01 05:44:31;;;;;;;15.10;7.60;;;;;;;-2.39;75.65;99753.39;78144;1300;3049862;-67
2023/03/01 05:46:57;;;;;;;15.30;8.00;;;;;;;-2.42;75.93;99756.83;79410;1300;3013745;-66
2023/03/01 05:49:24;;;;;;;14.20;8.40;;;;;;;-2.40;75.94;99746.87;79248;1300;3013133;-66
2023/03/01 05:51:53;;;;;;;15.90;7.80;;;;;;;-2.39;76.04;99749.96;78184;1296;3029480;-66
2023/03/01 05:54:20;;;;;;;13.60;8.50;;;;;;;-2.36;75.53;99755.44;79595;1295;3012963;-67
2023/03/01 05:56:46;;;;;;;13.20;6.70;;;;;;;-2.26;75.88;99762.27;79284;1297;3011588;-66
2023/03/01 05:59:16;;;;;;;20.10;9.10;;;;;;;-2.10;74.51;99765.48;78181;1300;3050442;-68
2023/03/01 06:01:43;;;;;;;17.00;7.90;;;;;;;-2.30;75.42;99772.41;79381;1300;3015589;-65
2023/03/01 06:04:14;;;;;;;16.10;7.90;;;;;;;-2.14;75.13;99767.38;78749;1296;3011811;-66
2023/03/01 06:06:42;;;;;;;16.60;7.50;;;;;;;-2.03;74.85;99763.22;79289;1296;3013494;-66
2023/03/01 06:09:14;;;;;;;14.00;6.80;;;;;;;-2.15;74.51;99767.72;78008;1296;3055816;-68
2023/03/01 06:11:41;;;;;;;15.30;8.00;;;;;;;-2.10;74.39;99768.05;79264;1297;3013941;-66
2023/03/01 06:14:07;;;;;;;17.90;8.20;;;;;;;-2.06;73.97;99762.54;79412;1300;3011839;-69
2023/03/01 06:16:37;;;;;;;15.40;7.50;;;;;;;-1.95;73.26;99767.30;78167;1300;3052118;-68
2023/03/01 06:19:04;;;;;;;13.90;7.40;;;;;;;-1.94;73.17;99766.77;79228;1297;3018892;-65
2023/03/01 06:21:30;;;;;;;15.60;8.40;;;;;;;-1.78;73.09;99762.23;79223;1295;3013311;-69
2023/03/01 06:23:59;;;;;;;10.80;6.20;;;;;;;-1.63;72.18;99761.11;78129;1295;3028365;-67
2023/03/01 06:26:26;;;;;;;12.40;6.70;;;;;;;-1.57;71.60;99764.52;79206;1296;3021137;-69
2023/03/01 06:28:52;;;;;;;15.40;7.90;;;;;;;-1.44;70.92;99771.80;79218;1297;3011867;-65
2023/03/01 06:31:20;;;;;;;16.00;7.80;;;;;;;-1.47;70.43;99768.39;78089;1300;3029840;-65
2023/03/01 06:33:48;;;;;;;18.50;8.30;;;;;;;-1.47;69.91;99775.95;79265;1300;3013691;-67
2023/03/01 06:36:18;;;;;;;20.30;9.00;;;;;;;-1.40;69.86;99771.61;79234;1297;3011638;-66
2023/03/01 06:38:46;;;;;;;19.50;9.10;;;;;;;-1.34;69.73;99765.55;78188;1297;3057106;-64
2023/03/01 06:41:13;;;;;;;20.20;9.80;;;;;;;-1.25;69.49;99764.11;79433;1297;3013893;-66
2023/03/01 06:43:40;;;;;;;17.10;8.30;;;;;;;-1.20;68.78;99751.35;79188;1298;3011809;-66
2023/03/01 06:46:08;;;;;;;19.60;8.60;;;;;;;-1.07;68.23;99753.30;78030;1297;3052986;-69
2023/03/01 06:48:34;;;;;;;22.10;8.80;;;;;;;-0.97;68.10;99740.48;79488;1300;3013863;-68
2023/03/01 06:51:02;;;;;;;19.80;8.20;;;;;;;-0.98;68.02;99738.95;79533;1297;3011668;-68
2023/03/01 06:53:30;;;;;;;21.90;9.00;;;;;;;-0.95;67.66;99731.37;78092;1297;3057218;-68
2023/03/01 06:56:00;;;;;;;17.50;8.30;;;;;;;-0.95;67.55;99736.70;79562;1298;3013260;-68
2023/03/01 06:58:29;;;;;;;18.40;8.70;;;;;;;-0.95;68.14;99740.64;78880;1294;3011767;-65
2023/03/01 07:00:55;;;;;;;14.80;8.60;;;;;;;-0.82;68.03;99737.44;79659;1298;3019284;-68
2023/03/01 07:03:22;;;;;;;14.00;8.40;;;;;;;-0.65;67.59;99729.86;79381;1299;3013246;-65
2023/03/01 07:05:52;;;;;;;18.90;9.00;;;;;;;-0.59;67.07;99728.58;78239;1294;3029301;-65
2023/03/01 07:08:18;;;;;;;19.50;8.50;;;;;;;-0.60;66.91;99730.84;79418;1294;3013512;-68
2023/03/01 07:10:57;;;;;;;21.50;9.30;;;;;;;-0.59;66.58;99723.59;78270;1294;3028793;-66
2023/03/01 07:13:27;;;;;;;20.20;8.60;;;;;;;-0.33;66.88;99719.52;78083;1300;3050747;-66
2023/03/01 07:15:56;;;;;;;20.10;9.00;;;;;;;-0.25;66.43;99718.39;79382;1295;3012879;-63
2023/03/01 07:18:22;;;;;;;17.00;8.70;;;;;;;-0.11;66.03;99718.23;79317;1299;3011883;-67
2023/03/01 07:20:52;;;;;;;17.60;8.30;;;;;;;-0.07;65.80;99720.06;78141;1297;3053258;-67
2023/03/01 07:23:20;;;;;;;16.10;7.50;;;;;;;-0.18;65.93;99720.53;79351;1294;3014448;-62
2023/03/01 07:25:54;;;;;;;17.80;7.90;;;;;;;0.01;66.08;99711.68;79489;1294;3013334;-65
2023/03/01 07:28:24;;;;;;;14.60;8.60;;;;;;;0.04;65.31;99708.88;78202;1299;3049324;-67
2023/03/01 07:30:50;;;;;;;17.30;9.00;;;;;;;0.19;65.07;99712.11;79465;1297;3012869;-67
2023/03/01 07:33:17;;;;;;;18.50;9.10;;;;;;;0.38;64.76;99710.81;79538;1294;3011757;-68
2023/03/01 07:35:45;;;;;;;21.90;9.70;;;;;;;0.41;64.70;99712.14;78294;1297;3027975;-68
2023/03/01 07:38:11;;;;;;;24.40;9.30;;;;;;;0.54;65.03;99709.71;79518;1299;3013448;-71
2023/03/01 07:40:38;;;;;;;16.50;7.90;;;;;;;0.74;64.98;99708.70;79524;1299;3011712;-71
2023/03/01 07:43:10;;;;;;;16.50;8.70;;;;;;;0.82;64.08;99707.35;78212;1300;3049574;-71
2023/03/01 07:45:43;;;;;;;16.40;7.50;;;;;;;0.59;63.54;99706.85;79631;1294;3011897;-67
2023/03/01 07:48:13;;;;;;;13.80;8.10;;;;;;;0.82;63.54;99700.10;78377;1294;3050465;-66
2023/03/01 07:50:40;;;;;;;15.10;7.20;;;;;;;1.05;62.82;99704.02;79605;1299;3013285;-65
2023/03/01 07:53:08;;;;;;;13.80;7.30;;;;;;;1.21;62.39;99698.39;79583;1294;3011849;-65
2023/03/01 07:55:36;;;;;;;14.40;7.90;;;;;;;1.29;62.38;99698.06;78398;1294;3051278;-65
2023/03/01 07:58:03;;;;;;;17.10;10.00;;;;;;;1.56;62.86;99699.27;79684;1299;3013984;-65
2023/03/01 08:00:31;;;;;;;17.70;9.10;;;;;;;1.22;62.02;99699.05;79654;1294;3011829;-64
2023/03/01 08:03:00;;;;;;;17.00;9.00;;;;;;;1.20;62.07;99694.95;78286;1299;3050302;-65
2023/03/01 08:05:28;;;;;;;15.60;8.10;;;;;;;1.25;62.70;99689.70;79480;1299;3013409;-63
2023/03/01 08:07:55;;;;;;;17.60;8.60;;;;;;;1.41;63.01;99685.77;79633;1298;3011693;-70
2023/03/01 08:10:22;;;;;;;16.60;8.40;;;;;;;1.58;62.65;99689.73;78394;1299;3050619;-67
2023/03/01 08:12:51;;;;;;;13.30;7.40;;;;;;;1.56;62.23;99692.20;79477;1295;3013344;-64
2023/03/01 08:15:21;;;;;;;15.40;8.50;;;;;;;1.74;62.07;99683.53;79019;1294;3013009;-66
2023/03/01 08:17:50;;;;;;;15.30;8.50;;;;;;;2.06;61.84;99680.27;79451;1294;3012905;-70
2023/03/01 08:20:17;;;;;;;15.60;7.30;;;;;;;2.24;61.37;99678.31;79512;1297;3012001;-68
2023/03/01 08:22:44;;;;;;;18.10;8.20;;;;;;;2.30;61.22;99672.79;78203;1297;3052954;-65
2023/03/01 08:25:11;;;;;;;16.30;8.50;;;;;;;2.60;61.02;99670.88;79413;1297;3013568;-65
2023/03/01 08:27:38;;;;;;;16.30;8.70;;;;;;;2.79;59.63;99672.14;79530;1294;3011862;-66
2023/03/01 08:30:10;;;;;;;15.60;7.30;;;;;;;2.86;58.62;99668.32;78314;1297;3052767;-67
2023/03/01 08:32:38;;;;;;;14.20;8.00;;;;;;;2.83;58.44;99668.23;79566;1294;3013582;-66
2023/03/01 08:35:05;;;;;;;18.60;8.40;;;;;;;2.98;58.31;99658.48;79576;1294;3012843;-68
2023/03/01 08:37:33;;;;;;;14.90;7.30;;;;;;;3.16;58.29;99650.05;78354;1294;3053359;-68
2023/03/01 08:40:00;;;;;;;17.20;7.80;;;;;;;3.22;57.99;99645.90;79479;1294;3013546;-68
2023/03/01 08:42:26;;;;;;;20.10;8.30;;;;;;;3.05;58.16;99643.25;79354;1294;3011690;-69
2023/03/01 08:44:54;;;;;;;19.10;9.30;;;;;;;3.25;58.73;99637.16;78365;1297;3028390;-68
2023/03/01 08:47:21;;;;;;;17.80;8.60;;;;;;;3.18;58.72;99636.15;79449;1294;3013398;-64
2023/03/01 08:49:49;;;;;;;17.20;7.40;;;;;;;3.23;58.03;99633.08;79467;1297;3011741;-66
2023/03/01 08:52:20;;;;;;;18.80;8.20;;;;;;;3.14;58.30;99627.77;78398;1294;3052156;-69
2023/03/01 08:54:50;;;;;;;20.00;7.80;;;;;;;3.18;58.71;99625.77;79440;1294;3011664;-67
2023/03/01 08:57:20;;;;;;;17.90;7.80;;;;;;;3.43;58.06;99619.68;78933;1297;3051695;-67
2023/03/01 08:59:47;;;;;;;16.40;8.00;;;;;;;3.45;58.23;99624.32;79534;1297;3018765;-68
2023/03/01 09:02:16;;;;;;;12.80;7.80;;;;;;;3.54;57.87;99624.05;79405;1297;3011755;-65
2023/03/01 09:04:44;;;;;;;13.40;6.20;;;;;;;3.57;57.71;99613.74;78422;1297;3051008;-65
2023/03/01 09:07:16;;;;;;;14.60;7.70;;;;;;;3.19;58.41;99615.00;79376;1295;3012170;-68
2023/03/01 09:09:44;;;;;;;10.40;6.00;;;;;;;3.23;58.67;99602.08;78187;1294;3052545;-63
2023/03/01 09:12:11;;;;;;;11.90;6.80;;;;;;;3.20;58.80;99602.69;79444;1297;3021374;-66
2023/03/01 09:14:38;;;;;;;14.20;6.80;;;;;;;3.33;58.69;99608.55;79448;1297;3011400;-67
2023/03/01 09:17:06;;;;;;;11.20;6.20;;;;;;;3.38;58.06;99613.78;78410;1294;3027025;-65
2023/03/01 09:19:33;;;;;;;14.80;6.80;;;;;;;3.36;58.33;99602.75;79410;1294;3013032;-65
2023/03/01 09:21:59;;;;;;;13.60;6.90;;;;;;;3.33;58.60;99607.84;79467;1297;3011647;-67
2023/03/01 09:24:27;;;;;;;16.90;8.20;;;;;;;3.07;59.03;99604.42;78242;1297;3026496;-68
2023/03/01 09:26:56;;;;;;;12.50;7.00;;;;;;;3.03;59.56;99597.79;79675;1294;3011814;-68
2023/03/01 09:29:25;;;;;;;18.10;8.50;;;;;;;2.95;59.69;99586.41;78914;1294;3011828;-65
2023/03/01 09:31:54;;;;;;;15.20;6.90;;;;;;;3.06;59.82;99579.88;79638;1294;3012795;-66
2023/03/01 09:34:23;;;;;;;13.60;7.80;;;;;;;3.14;59.58;99576.36;79540;1292;3013466;-66
2023/03/01 09:36:51;;;;;;;9.80;5.00;;;;;;;3.05;59.96;99585.44;78137;1299;3049164;-68
2023/03/01 09:39:17;;;;;;;13.90;6.60;;;;;;;2.97;60.34;99579.26;79652;1297;3013246;-68
2023/03/01 09:41:46;;;;;;;16.70;7.10;;;;;;;3.09;60.15;99576.34;79487;1297;3011908;-64
2023/03/01 09:44:24;;;;;;;15.40;7.90;;;;;;;3.10;60.62;99581.48;78489;1294;3051460;-64
2023/03/01 09:46:51;;;;;;;20.70;9.20;;;;;;;3.32;60.28;99582.41;79645;1298;3013114;-62
2023/03/01 09:49:23;;;;;;;13.60;6.20;;;;;;;3.43;59.94;99585.23;78680;1297;3048740;-64
2023/03/01 09:52:28;;;;;;;12.20;6.90;;;;;;;3.47;60.29;99587.87;79709;1295;3012053;-64
2023/03/01 09:54:56;;;;;;;8.70;4.40;;;;;;;3.67;59.68;99585.41;78262;1297;3051185;-66
2023/03/01 09:57:49;;;;;;;10.70;5.70;;;;;;;3.56;59.70;99579.31;79650;1295;3013113;-64
2023/03/01 10:00:23;;;;;;;9.20;5.00;;;;;;;3.58;60.06;99577.17;78108;1297;3070020;-67
2023/03/01 10:03:15;;;;;;;10.90;6.10;;;;;;;3.74;59.78;99573.92;79679;1297;3013621;-64
2023/03/01 10:06:07;;;;;;;9.30;5.40;;;;;;;3.84;60.14;99565.83;78055;1297;3058453;-64
2023/03/01 10:08:51;;;;;;;11.20;5.10;;;;;;;3.98;59.41;99570.39;78161;1297;3050117;-66
2023/03/01 10:11:28;;;;;;;10.60;6.00;;;;;;;4.02;59.13;99569.39;78340;1297;3053675;-68
2023/03/01 10:14:21;;;;;;;9.80;5.60;;;;;;;3.90;59.37;99567.70;78327;1297;3050434;-64
2023/03/01 10:17:04;;;;;;;11.10;5.80;;;;;;;4.04;58.84;99566.20;78331;1297;3052764;-66
2023/03/01 10:19:40;;;;;;;14.50;6.90;;;;;;;4.02;58.77;99559.86;78261;1298;3051818;-69
2023/03/01 10:22:29;;;;;;;12.00;6.40;;;;;;;4.28;58.56;99559.20;79505;1297;3011678;-65
2023/03/01 10:24:58;;;;;;;13.50;6.40;;;;;;;4.44;57.84;99561.44;78094;1299;3051347;-64
2023/03/01 10:27:27;;;;;;;10.00;6.10;;;;;;;4.46;57.90;99571.80;79627;1294;3014546;-65
2023/03/01 10:30:02;;;;;;;13.80;6.90;;;;;;;4.34;58.09;99570.41;78290;1295;3052874;-71
2023/03/01 10:32:31;;;;;;;13.60;7.20;;;;;;;4.28;58.02;99587.30;78963;1295;3011681;-71
2023/03/01 10:34:58;;;;;;;18.20;6.10;;;;;;;4.19;58.31;99573.38;79458;1297;3012869;-66
2023/03/01 10:37:27;;;;;;;17.80;8.30;;;;;;;4.15;58.34;99574.00;79412;1297;3013192;-68
2023/03/01 10:39:55;;;;;;;16.90;7.60;;;;;;;4.12;58.68;99560.58;78203;1297;3068864;-62
2023/03/01 10:42:32;;;;;;;15.10;7.40;;;;;;;3.99;58.99;99564.83;79596;1294;3011782;-64
2023/03/01 10:45:16;;;;;;;14.70;8.50;;;;;;;4.18;58.65;99556.59;78229;1297;3050166;-67
2023/03/01 10:47:44;;;;;;;12.00;6.80;;;;;;;4.30;58.28;99564.67;78266;1297;3053552;-67
2023/03/01 10:50:21;;;;;;;14.40;7.30;;;;;;;4.24;58.20;99559.48;79439;1297;3013263;-71
2023/03/01 10:53:03;;;;;;;15.00;8.10;;;;;;;4.10;58.66;99558.58;78438;1300;3051418;-65
2023/03/01 10:55:31;;;;;;;21.30;9.40;;;;;;;4.02;58.99;99558.66;78444;1298;3068821;-65
2023/03/01 10:58:22;;;;;;;18.60;10.10;;;;;;;3.79;59.59;99558.02;79438;1292;3015096;-66
2023/03/01 11:00:52;;;;;;;19.50;10.30;;;;;;;4.07;59.17;99552.44;78042;1300;3049899;-67
2023/03/01 11:03:24;;;;;;;19.60;8.90;;;;;;;4.24;58.94;99544.95;79662;1294;3011565;-65
2023/03/01 11:06:04;;;;;;;17.80;8.00;;;;;;;4.23;58.75;99545.48;78223;1300;3049806;-68
2023/03/01 11:08:33;;;;;;;18.80;9.20;;;;;;;4.19;58.95;99541.47;78258;1294;3053978;-65
2023/03/01 11:11:31;;;;;;;17.40;8.50;;;;;;;4.13;59.14;99534.37;79651;1297;3012913;-66
2023/03/01 11:14:15;;;;;;;11.20;6.80;;;;;;;4.23;59.15;99534.04;78347;1294;3069862;-67
2023/03/01 11:17:11;;;;;;;13.60;6.80;;;;;;;4.24;58.85;99531.75;78861;1298;3051876;-65
2023/03/01 11:19:40;;;;;;;8.50;5.10;;;;;;;4.00;59.37;99547.45;78366;1295;3058537;-64
2023/03/01 11:22:17;;;;;;;9.90;5.60;;;;;;;3.85;59.66;99548.80;79542;1297;3013161;-63
2023/03/01 11:24:48;;;;;;;12.10;6.90;;;;;;;3.90;59.73;99539.11;77790;1295;3055149;-65
2023/03/01 11:27:26;;;;;;;12.10;6.10;;;;;;;3.65;60.39;99554.96;79661;1297;3013551;-64
2023/03/01 11:30:15;;;;;;;16.50;7.40;;;;;;;3.69;60.46;99533.70;78252;1300;3051461;-66
2023/03/01 11:32:46;;;;;;;12.70;7.30;;;;;;;3.75;60.55;99540.44;78453;1297;3052373;-63